Time;durP1;ratioP1;P1;durP2;ratioP2;P2;SDS_P1;SDS_P2;PMS_P1;PMS_P2;Temp;Humidity;BMP_temperature;BMP_pressure;BME280_temperature;BME280_humidity;BME280_pressure;Samples;Min_cycle;Max_cycle;Signal;HPM_P1;HPM_P2
2021/08/19 00:00:13;;;;;;;6.37;3.33;;;15.40;99.90;;;;;;4440471;32;20142;-86
2021/08/19 00:02:40;;;;;;;7.93;3.50;;;15.40;99.90;;;;;;4440259;32;20185;-85
2021/08/19 00:05:07;;;;;;;6.87;4.00;;;15.40;99.90;;;;;;4439589;32;20131;-86
2021/08/19 00:07:34;;;;;;;6.40;3.37;;;15.40;99.90;;;;;;4441027;32;20416;-87
2021/08/19 00:10:03;;;;;;;6.43;3.73;;;15.40;99.90;;;;;;4441328;32;20384;-85
2021/08/19 00:12:30;;;;;;;5.77;3.50;;;15.40;99.90;;;;;;4439151;32;20127;-85
2021/08/19 00:14:56;;;;;;;8.97;3.23;;;15.50;99.90;;;;;;4440231;32;20180;-85
2021/08/19 00:17:23;;;;;;;6.43;3.67;;;15.40;99.90;;;;;;4441029;32;20218;-85
2021/08/19 00:19:50;;;;;;;8.40;3.90;;;15.40;99.90;;;;;;4439064;32;20127;-86
2021/08/19 00:22:16;;;;;;;6.10;3.37;;;15.50;99.90;;;;;;4440851;32;20176;-86
2021/08/19 00:24:43;;;;;;;5.67;3.53;;;15.50;99.90;;;;;;4438900;32;20490;-86
2021/08/19 00:27:10;;;;;;;7.87;3.03;;;15.50;99.90;;;;;;4440741;32;20323;-86
2021/08/19 00:29:37;;;;;;;7.33;3.47;;;15.50;99.90;;;;;;4441006;32;20512;-84
2021/08/19 00:32:05;;;;;;;6.17;3.70;;;15.40;99.90;;;;;;4439977;32;20154;-86
2021/08/19 00:34:31;;;;;;;6.90;3.47;;;15.40;99.90;;;;;;4438813;32;20164;-86
2021/08/19 00:36:58;;;;;;;6.70;3.40;;;15.40;99.90;;;;;;4439023;32;20152;-86
2021/08/19 00:39:25;;;;;;;5.20;3.57;;;15.30;99.90;;;;;;4440195;32;20142;-85
2021/08/19 00:41:52;;;;;;;8.00;3.53;;;15.30;99.90;;;;;;4438976;32;20131;-85
2021/08/19 00:44:19;;;;;;;5.03;3.40;;;15.30;99.90;;;;;;4441094;32;20352;-85
2021/08/19 00:46:46;;;;;;;6.93;3.80;;;15.30;99.90;;;;;;4440829;32;20139;-86
2021/08/19 00:49:13;;;;;;;6.93;3.10;;;15.40;99.90;;;;;;4439850;32;20175;-85
2021/08/19 00:51:41;;;;;;;5.23;3.30;;;15.30;99.90;;;;;;4439151;32;20123;-86
2021/08/19 00:54:11;;;;;;;4.93;3.37;;;15.30;99.90;;;;;;4440405;32;20209;-85
2021/08/19 00:56:39;;;;;;;5.67;3.50;;;15.40;99.90;;;;;;4440540;32;20460;-86
2021/08/19 00:59:10;;;;;;;6.53;3.20;;;15.40;99.90;;;;;;4441311;32;20150;-85
2021/08/19 01:01:37;;;;;;;5.77;3.30;;;15.40;99.90;;;;;;4439516;32;20130;-85
2021/08/19 01:04:05;;;;;;;5.67;3.37;;;15.40;99.90;;;;;;4439205;32;20184;-84
2021/08/19 01:06:36;;;;;;;5.60;3.43;;;15.40;99.90;;;;;;4439446;32;20420;-85
2021/08/19 01:09:07;;;;;;;8.13;3.27;;;15.40;99.90;;;;;;4439984;32;20123;-85
2021/08/19 01:11:44;;;;;;;6.83;3.10;;;15.40;99.90;;;;;;4439594;32;20164;-85
2021/08/19 01:14:15;;;;;;;6.03;3.50;;;15.30;99.90;;;;;;4438573;32;20183;-85
2021/08/19 01:16:44;;;;;;;6.07;3.30;;;15.30;99.90;;;;;;4438339;32;20496;-85
2021/08/19 01:19:19;;;;;;;4.80;3.10;;;15.30;99.90;;;;;;4439886;32;20127;-86
2021/08/19 01:21:47;;;;;;;7.83;3.33;;;15.30;99.90;;;;;;4438630;32;20164;-85
2021/08/19 01:24:14;;;;;;;4.80;2.90;;;15.30;99.90;;;;;;4441057;32;20203;-85
2021/08/19 01:26:41;;;;;;;6.70;3.20;;;15.30;99.90;;;;;;4442663;32;20215;-85
2021/08/19 01:29:09;;;;;;;4.47;3.00;;;15.30;99.90;;;;;;4443022;32;20130;-85
2021/08/19 01:31:36;;;;;;;5.20;3.27;;;15.30;99.90;;;;;;4443054;32;20131;-87
2021/08/19 01:34:03;;;;;;;6.70;3.00;;;15.30;99.90;;;;;;4442476;32;20401;-86
2021/08/19 01:36:30;;;;;;;4.73;3.17;;;15.30;99.90;;;;;;4441550;32;20404;-86
2021/08/19 01:38:57;;;;;;;4.50;3.23;;;15.20;99.90;;;;;;4441766;32;20180;-85
2021/08/19 01:41:24;;;;;;;6.40;3.37;;;15.20;99.90;;;;;;4442055;32;20500;-85
2021/08/19 01:43:52;;;;;;;5.10;3.30;;;15.20;99.90;;;;;;4443278;32;20134;-85
2021/08/19 01:46:20;;;;;;;6.17;3.23;;;15.20;99.90;;;;;;4440711;32;20532;-85
2021/08/19 01:48:51;;;;;;;4.67;3.10;;;15.10;99.90;;;;;;4442581;32;20163;-86
2021/08/19 01:51:19;;;;;;;6.13;3.17;;;15.10;99.90;;;;;;4440682;32;20214;-85
2021/08/19 01:53:52;;;;;;;5.17;3.30;;;15.10;99.90;;;;;;4442149;32;20158;-85
2021/08/19 01:56:22;;;;;;;7.53;3.20;;;15.10;99.90;;;;;;4441924;32;20127;-86
2021/08/19 01:58:51;;;;;;;4.50;3.03;;;15.00;99.90;;;;;;4442464;32;20135;-86
2021/08/19 02:01:22;;;;;;;6.23;3.10;;;15.00;99.90;;;;;;4442633;32;20405;-85
2021/08/19 02:03:50;;;;;;;4.87;2.93;;;15.00;99.90;;;;;;4440505;32;20235;-84
2021/08/19 02:06:18;;;;;;;7.87;3.20;;;15.00;99.90;;;;;;4441271;32;20436;-86
2021/08/19 02:08:44;;;;;;;4.60;2.90;;;14.90;99.90;;;;;;4442303;32;20192;-86
2021/08/19 02:11:12;;;;;;;5.73;3.53;;;14.90;99.90;;;;;;4440745;32;20473;-85
2021/08/19 02:13:39;;;;;;;6.80;3.33;;;14.90;99.90;;;;;;4442247;32;20192;-86
2021/08/19 02:16:06;;;;;;;6.07;3.50;;;14.90;99.90;;;;;;4440899;32;20162;-86
2021/08/19 02:18:33;;;;;;;4.50;3.00;;;14.80;99.90;;;;;;4442466;32;20156;-84
2021/08/19 02:21:00;;;;;;;5.20;3.20;;;14.80;99.90;;;;;;4440226;32;20204;-84
2021/08/19 02:23:27;;;;;;;5.40;2.90;;;14.70;99.90;;;;;;4439842;32;20175;-79
2021/08/19 02:25:53;;;;;;;5.13;3.20;;;14.70;99.90;;;;;;4440809;32;20138;-76
2021/08/19 02:28:20;;;;;;;5.27;3.07;;;14.70;99.90;;;;;;4441988;32;20123;-86
2021/08/19 02:30:47;;;;;;;7.27;3.47;;;14.70;99.90;;;;;;4442017;32;20540;-86
2021/08/19 02:33:14;;;;;;;6.40;3.13;;;14.60;99.90;;;;;;4442188;32;20181;-86
2021/08/19 02:35:41;;;;;;;4.90;3.43;;;14.50;99.90;;;;;;4440114;32;20132;-86
2021/08/19 02:38:07;;;;;;;5.40;3.77;;;14.50;99.90;;;;;;4440649;32;20156;-85
2021/08/19 02:40:36;;;;;;;5.63;3.30;;;14.50;99.90;;;;;;4442090;32;20168;-84
2021/08/19 02:43:04;;;;;;;4.87;3.23;;;14.50;99.90;;;;;;4441063;32;20149;-85
2021/08/19 02:45:31;;;;;;;7.33;3.50;;;14.50;99.90;;;;;;4425199;32;20150;-85
2021/08/19 02:47:58;;;;;;;7.73;3.83;;;14.40;99.90;;;;;;4425236;32;20170;-85
2021/08/19 02:50:25;;;;;;;5.13;3.67;;;14.40;99.90;;;;;;4425283;32;20431;-85
2021/08/19 02:52:52;;;;;;;6.43;3.40;;;14.30;99.90;;;;;;4426447;32;20175;-84
2021/08/19 02:55:19;;;;;;;6.93;4.10;;;14.30;99.90;;;;;;4426138;32;20231;-84
2021/08/19 02:57:46;;;;;;;5.97;3.60;;;14.20;99.90;;;;;;4424683;32;20180;-84
2021/08/19 03:00:13;;;;;;;6.17;3.63;;;14.20;99.90;;;;;;4426578;32;20165;-84
2021/08/19 03:02:41;;;;;;;7.13;3.70;;;14.20;99.90;;;;;;4425165;32;20197;-84
2021/08/19 03:05:08;;;;;;;10.77;4.13;;;14.20;99.90;;;;;;4425839;32;20140;-84
2021/08/19 03:07:35;;;;;;;5.93;3.77;;;14.10;99.90;;;;;;4424686;32;20202;-85
2021/08/19 03:10:02;;;;;;;6.20;3.87;;;14.10;99.90;;;;;;4426657;32;20211;-84
2021/08/19 03:12:29;;;;;;;6.30;3.50;;;14.10;99.90;;;;;;4426221;32;20130;-84
2021/08/19 03:14:55;;;;;;;11.17;3.73;;;14.10;99.90;;;;;;4426487;32;20127;-84
2021/08/19 03:17:22;;;;;;;6.80;4.00;;;14.00;99.90;;;;;;4425110;32;20183;-84
2021/08/19 03:19:50;;;;;;;6.40;3.53;;;14.00;99.90;;;;;;4440662;32;20173;-83
2021/08/19 03:22:17;;;;;;;4.43;3.53;;;14.00;99.90;;;;;;4440818;32;20396;-83
2021/08/19 03:24:44;;;;;;;6.17;3.80;;;14.00;99.90;;;;;;4439534;32;20199;-85
2021/08/19 03:27:11;;;;;;;6.17;3.70;;;14.00;99.90;;;;;;4439873;32;20164;-85
2021/08/19 03:29:38;;;;;;;6.23;3.80;;;14.00;99.90;;;;;;4439893;32;20127;-85
2021/08/19 03:32:06;;;;;;;6.60;4.27;;;14.00;99.90;;;;;;4439777;32;20150;-84
2021/08/19 03:34:33;;;;;;;5.57;3.70;;;14.00;99.90;;;;;;4440509;32;20165;-84
2021/08/19 03:37:03;;;;;;;5.77;3.87;;;13.90;99.90;;;;;;4441206;32;20179;-83
2021/08/19 03:39:30;;;;;;;7.10;3.90;;;13.90;99.90;;;;;;4440383;32;20135;-83
2021/08/19 03:41:57;;;;;;;6.57;3.90;;;13.90;99.90;;;;;;4441406;32;20447;-83
2021/08/19 03:44:24;;;;;;;7.03;3.70;;;13.90;99.90;;;;;;4440772;32;20149;-84
2021/08/19 03:46:51;;;;;;;6.70;3.60;;;13.90;99.90;;;;;;4441897;32;20127;-83
2021/08/19 03:49:17;;;;;;;5.57;3.73;;;13.90;99.90;;;;;;4448499;32;20175;-83
2021/08/19 03:51:44;;;;;;;6.37;3.80;;;13.90;99.90;;;;;;4446045;32;20318;-83
2021/08/19 03:54:12;;;;;;;7.23;3.93;;;13.90;99.90;;;;;;4445624;32;20120;-83
2021/08/19 03:56:39;;;;;;;7.67;3.90;;;13.90;99.90;;;;;;4440956;32;20173;-84
2021/08/19 03:59:07;;;;;;;8.63;3.80;;;13.90;99.90;;;;;;4439645;32;20445;-83
2021/08/19 04:01:34;;;;;;;6.00;4.00;;;13.80;99.90;;;;;;4440910;32;20380;-85
2021/08/19 04:04:01;;;;;;;9.27;3.93;;;13.90;99.90;;;;;;4441099;32;20176;-84
2021/08/19 04:06:28;;;;;;;5.97;3.63;;;13.90;99.90;;;;;;4441997;32;20167;-84
2021/08/19 04:08:55;;;;;;;7.10;3.90;;;13.90;99.90;;;;;;4441007;32;20215;-84
2021/08/19 04:11:22;;;;;;;6.00;3.80;;;14.00;99.90;;;;;;4439643;32;20126;-84
2021/08/19 04:13:50;;;;;;;5.27;3.47;;;13.90;99.90;;;;;;4439458;32;20162;-84
2021/08/19 04:16:17;;;;;;;5.63;3.37;;;14.00;99.90;;;;;;4440983;32;20150;-84
2021/08/19 04:18:44;;;;;;;6.30;4.00;;;14.00;99.90;;;;;;4440706;32;20224;-84
2021/08/19 04:21:11;;;;;;;5.87;3.67;;;14.10;99.90;;;;;;4441253;32;20130;-83
2021/08/19 04:23:42;;;;;;;9.37;4.07;;;14.10;99.90;;;;;;4440626;32;20173;-83
2021/08/19 04:26:10;;;;;;;7.73;4.07;;;14.10;99.90;;;;;;4440650;32;20451;-84
2021/08/19 04:28:37;;;;;;;5.73;3.63;;;14.20;99.90;;;;;;4440423;32;20146;-83
2021/08/19 04:31:04;;;;;;;6.83;3.50;;;14.20;99.90;;;;;;4439289;32;20176;-82
2021/08/19 04:33:31;;;;;;;5.90;3.40;;;14.20;99.90;;;;;;4440586;32;20176;-83
2021/08/19 04:35:58;;;;;;;7.37;3.67;;;14.20;99.90;;;;;;4438953;32;20131;-83
2021/08/19 04:38:24;;;;;;;7.57;3.70;;;14.30;99.90;;;;;;4439402;32;20178;-80
2021/08/19 04:40:51;;;;;;;6.80;3.63;;;14.30;99.90;;;;;;4438346;32;20810;-83
2021/08/19 04:43:18;;;;;;;6.60;3.63;;;14.30;99.90;;;;;;4438956;32;20150;-83
2021/08/19 04:45:45;;;;;;;7.00;3.70;;;14.40;99.90;;;;;;4438943;32;20162;-83
2021/08/19 04:48:12;;;;;;;5.97;3.60;;;14.40;99.90;;;;;;4440037;32;20147;-84
2021/08/19 04:50:39;;;;;;;8.97;4.00;;;14.40;99.90;;;;;;4438526;32;20148;-83
2021/08/19 04:53:06;;;;;;;8.00;3.50;;;14.50;99.90;;;;;;4438956;32;20192;-84
2021/08/19 04:55:32;;;;;;;5.67;3.17;;;14.50;99.90;;;;;;4439802;32;20246;-85
2021/08/19 04:57:59;;;;;;;5.87;3.43;;;14.60;99.90;;;;;;4439449;32;20189;-84
2021/08/19 05:00:26;;;;;;;6.60;3.77;;;14.60;99.90;;;;;;4438131;32;20130;-84
2021/08/19 05:02:53;;;;;;;5.57;3.63;;;14.70;99.90;;;;;;4437987;32;20475;-84
2021/08/19 05:05:21;;;;;;;6.20;3.50;;;14.70;99.90;;;;;;4440292;32;20169;-78
2021/08/19 05:09:05;;;;;;;5.40;3.37;;;14.80;99.90;;;;;;4482689;31;20282;-78
2021/08/19 05:11:32;;;;;;;7.23;3.27;;;14.80;99.90;;;;;;4467463;32;20134;-82
2021/08/19 05:13:59;;;;;;;4.90;3.47;;;15.00;99.90;;;;;;4468014;32;20142;-82
2021/08/19 05:16:27;;;;;;;9.23;3.80;;;15.00;99.90;;;;;;4469235;32;20137;-83
2021/08/19 05:18:54;;;;;;;7.57;3.57;;;15.10;99.90;;;;;;4468177;32;20168;-83
2021/08/19 05:21:23;;;;;;;4.67;3.30;;;15.20;99.90;;;;;;4468868;32;20134;-83
2021/08/19 05:23:51;;;;;;;6.00;3.50;;;15.30;99.90;;;;;;4467582;32;20152;-83
2021/08/19 05:26:19;;;;;;;10.40;3.40;;;15.40;99.90;;;;;;4469123;32;20521;-82
2021/08/19 05:28:46;;;;;;;6.30;3.40;;;15.50;99.90;;;;;;4467955;32;20451;-80
2021/08/19 05:31:13;;;;;;;5.77;3.20;;;15.70;99.90;;;;;;4466829;32;20168;-81
2021/08/19 05:33:40;;;;;;;4.63;3.20;;;15.80;99.90;;;;;;4460352;32;20146;-82
2021/08/19 05:36:09;;;;;;;5.00;3.07;;;15.90;99.90;;;;;;4452437;32;20399;-80
2021/08/19 05:38:39;;;;;;;6.73;3.07;;;15.90;99.90;;;;;;4452998;32;20227;-79
2021/08/19 05:41:06;;;;;;;5.80;3.20;;;16.00;99.90;;;;;;4463316;32;20142;-80
2021/08/19 05:43:33;;;;;;;4.23;2.93;;;16.10;99.90;;;;;;4465768;32;20138;-80
2021/08/19 05:46:00;;;;;;;5.83;3.23;;;16.10;99.90;;;;;;4466995;32;20179;-80
2021/08/19 05:48:27;;;;;;;4.47;2.93;;;16.20;99.90;;;;;;4457110;32;20483;-79
2021/08/19 05:50:54;;;;;;;4.07;2.80;;;16.30;99.90;;;;;;4466293;32;20250;-80
2021/08/19 05:53:21;;;;;;;7.27;2.80;;;16.30;99.90;;;;;;4466002;32;20219;-78
2021/08/19 05:55:47;;;;;;;5.20;3.00;;;16.40;99.90;;;;;;4467943;32;20161;-79
2021/08/19 05:58:14;;;;;;;4.23;2.80;;;16.50;99.90;;;;;;4467629;32;20143;-82
2021/08/19 06:00:49;;;;;;;5.50;2.87;;;16.60;99.90;;;;;;4464569;32;20244;-82
2021/08/19 06:03:17;;;;;;;4.53;2.83;;;16.70;99.90;;;;;;4453205;32;20165;-82
2021/08/19 06:05:44;;;;;;;5.60;2.80;;;16.80;99.90;;;;;;4462021;32;20154;-83
2021/08/19 06:08:11;;;;;;;3.80;2.60;;;16.90;99.90;;;;;;4458045;32;20174;-83
2021/08/19 06:10:38;;;;;;;5.63;2.77;;;17.10;99.90;;;;;;4462365;32;20428;-80
2021/08/19 06:13:05;;;;;;;3.50;2.63;;;17.20;99.90;;;;;;4467901;32;20145;-83
2021/08/19 06:15:31;;;;;;;6.83;2.87;;;17.30;99.90;;;;;;4467507;32;20421;-83
2021/08/19 06:17:59;;;;;;;5.27;2.87;;;17.30;99.90;;;;;;4459287;32;20241;-82
2021/08/19 06:20:26;;;;;;;4.03;2.60;;;17.30;99.90;;;;;;4455552;32;20129;-82
2021/08/19 06:22:55;;;;;;;5.53;2.70;;;17.40;99.90;;;;;;4457858;32;20642;-81
2021/08/19 06:25:23;;;;;;;4.53;2.53;;;17.50;99.90;;;;;;4456604;32;20122;-82
2021/08/19 06:27:50;;;;;;;4.03;2.57;;;17.60;99.90;;;;;;4457412;32;20191;-83
2021/08/19 06:30:17;;;;;;;6.80;2.63;;;17.60;99.90;;;;;;4456790;32;20152;-79
2021/08/19 06:32:44;;;;;;;5.80;2.50;;;17.70;99.90;;;;;;4457310;32;20397;-85
2021/08/19 06:35:11;;;;;;;3.97;2.50;;;17.70;99.90;;;;;;4455621;32;20473;-85
2021/08/19 06:37:38;;;;;;;5.03;2.47;;;17.70;99.90;;;;;;4457216;32;20176;-82
2021/08/19 06:40:06;;;;;;;7.63;2.40;;;17.80;99.90;;;;;;4450055;32;20241;-82
2021/08/19 06:42:33;;;;;;;4.00;2.50;;;17.80;99.90;;;;;;4440455;32;20198;-82
2021/08/19 06:45:00;;;;;;;2.90;2.23;;;18.00;99.90;;;;;;4442135;32;20176;-82
2021/08/19 06:47:27;;;;;;;5.40;2.40;;;18.10;99.90;;;;;;4440642;32;20206;-82
2021/08/19 06:49:54;;;;;;;4.40;2.40;;;18.30;99.90;;;;;;4441036;32;20276;-83
2021/08/19 06:52:20;;;;;;;4.93;2.27;;;18.50;99.90;;;;;;4440542;32;20127;-81
2021/08/19 06:54:47;;;;;;;3.70;2.30;;;18.60;99.90;;;;;;4441646;32;20463;-83
2021/08/19 06:57:14;;;;;;;3.77;2.40;;;18.70;99.90;;;;;;4440211;32;20184;-83
2021/08/19 06:59:41;;;;;;;3.30;2.30;;;18.90;99.90;;;;;;4441265;32;20156;-82
2021/08/19 07:02:07;;;;;;;7.87;2.93;;;19.10;99.90;;;;;;4441198;32;20127;-82
2021/08/19 07:04:34;;;;;;;4.43;2.23;;;19.20;99.90;;;;;;4439927;32;20747;-86
2021/08/19 07:07:01;;;;;;;4.30;2.30;;;19.20;99.90;;;;;;4439695;32;20162;-84
2021/08/19 07:09:28;;;;;;;5.27;2.50;;;19.10;99.90;;;;;;4441097;32;20126;-82
2021/08/19 07:11:55;;;;;;;5.43;2.40;;;19.10;99.90;;;;;;4439366;32;20171;-79
2021/08/19 07:14:22;;;;;;;3.57;2.30;;;19.10;99.90;;;;;;4441521;32;20142;-84
2021/08/19 07:16:48;;;;;;;4.23;2.50;;;19.30;99.90;;;;;;4447090;32;20147;-83
2021/08/19 07:19:15;;;;;;;5.17;2.40;;;19.40;99.90;;;;;;4439439;32;20416;-85
2021/08/19 07:21:44;;;;;;;10.47;2.80;;;19.50;99.90;;;;;;4439000;32;20212;-85
2021/08/19 07:24:12;;;;;;;4.20;2.20;;;19.50;99.90;;;;;;4440486;32;20168;-88
2021/08/19 07:26:39;;;;;;;6.77;2.50;;;19.70;99.90;;;;;;4440617;32;20145;-86
2021/08/19 07:29:05;;;;;;;5.13;2.47;;;19.80;99.90;;;;;;4447707;32;20396;-87
2021/08/19 07:31:32;;;;;;;4.50;2.00;;;19.90;99.90;;;;;;4455554;32;20195;-84
2021/08/19 07:34:00;;;;;;;3.93;2.00;;;20.00;99.90;;;;;;4456259;32;20401;-85
2021/08/19 07:36:26;;;;;;;2.93;2.00;;;20.10;99.90;;;;;;4456549;32;20142;-84
2021/08/19 07:38:53;;;;;;;2.73;2.20;;;20.20;99.90;;;;;;4455867;32;20515;-85
2021/08/19 07:41:20;;;;;;;4.73;2.07;;;20.30;99.90;;;;;;4454061;32;20138;-89
2021/08/19 07:43:47;;;;;;;5.37;2.10;;;20.50;99.90;;;;;;4454564;32;20978;-84
2021/08/19 07:46:13;;;;;;;3.20;2.10;;;20.60;99.90;;;;;;4456397;32;20174;-86
2021/08/19 07:48:40;;;;;;;3.50;2.23;;;20.50;99.90;;;;;;4452411;32;20199;-88
2021/08/19 07:51:07;;;;;;;2.30;1.93;;;20.60;99.90;;;;;;4440056;32;20147;-85
2021/08/19 07:53:34;;;;;;;4.33;2.00;;;20.70;99.90;;;;;;4438641;32;20178;-83
2021/08/19 07:56:01;;;;;;;2.57;2.00;;;20.70;99.90;;;;;;4439305;32;20447;-83
2021/08/19 07:58:30;;;;;;;4.47;2.00;;;20.70;99.90;;;;;;4447742;32;20142;-82
2021/08/19 08:00:58;;;;;;;3.30;2.20;;;20.80;99.90;;;;;;4443858;32;20469;-85
2021/08/19 08:03:26;;;;;;;6.83;2.10;;;21.00;99.90;;;;;;4455884;32;20142;-82
2021/08/19 08:05:53;;;;;;;2.40;1.87;;;21.00;99.90;;;;;;4443682;32;20147;-82
2021/08/19 08:08:20;;;;;;;4.83;2.07;;;20.80;99.90;;;;;;4448368;32;20172;-85
2021/08/19 08:10:47;;;;;;;3.17;1.80;;;20.90;99.90;;;;;;4455511;32;20186;-83
2021/08/19 08:13:14;;;;;;;2.30;1.97;;;21.40;99.90;;;;;;4453839;32;20170;-82
2021/08/19 08:15:42;;;;;;;4.20;2.40;;;21.60;99.90;;;;;;4453287;32;20221;-87
2021/08/19 08:18:15;;;;;;;3.47;1.93;;;21.60;99.90;;;;;;4452982;32;20162;-85
2021/08/19 08:20:44;;;;;;;2.83;2.40;;;22.10;99.90;;;;;;4451704;32;20397;-84
2021/08/19 08:23:12;;;;;;;2.90;2.23;;;22.30;99.90;;;;;;4440131;32;20166;-82
2021/08/19 08:25:38;;;;;;;3.77;2.10;;;22.40;99.90;;;;;;4440245;32;20150;-81
2021/08/19 08:28:10;;;;;;;4.80;2.40;;;22.30;99.90;;;;;;4440124;32;20387;-80
2021/08/19 08:30:44;;;;;;;3.90;2.53;;;22.20;99.90;;;;;;4440252;32;20142;-81
2021/08/19 08:33:14;;;;;;;3.23;2.50;;;22.30;99.90;;;;;;4438878;32;20158;-80
2021/08/19 08:35:41;;;;;;;3.80;2.60;;;22.30;99.90;;;;;;4450351;32;20169;-80
2021/08/19 08:38:15;;;;;;;5.87;2.40;;;22.60;99.90;;;;;;4450301;32;20440;-80
2021/08/19 08:40:45;;;;;;;5.13;2.67;;;22.80;99.90;;;;;;4453507;32;20294;-80
2021/08/19 08:43:14;;;;;;;3.93;2.40;;;22.90;99.90;;;;;;4455246;32;20524;-79
2021/08/19 08:45:42;;;;;;;6.07;2.53;;;23.10;99.90;;;;;;4453186;32;20134;-86
2021/08/19 08:48:11;;;;;;;4.93;2.80;;;23.00;99.90;;;;;;4454124;32;20154;-85
2021/08/19 08:50:40;;;;;;;3.03;2.73;;;22.80;99.90;;;;;;4453293;32;20185;-88
2021/08/19 08:53:09;;;;;;;3.40;2.80;;;22.80;99.90;;;;;;4453481;32;20146;-89
2021/08/19 08:55:37;;;;;;;6.00;2.80;;;23.00;99.90;;;;;;4454003;32;20138;-90
2021/08/19 08:58:05;;;;;;;3.57;2.77;;;23.30;99.90;;;;;;4453394;32;20188;-89
2021/08/19 09:00:32;;;;;;;4.30;3.03;;;23.70;99.90;;;;;;4453701;32;20466;-89
2021/08/19 09:03:11;;;;;;;6.93;3.00;;;23.90;99.90;;;;;;4448506;32;20150;-70
2021/08/19 09:05:47;;;;;;;4.47;3.20;;;23.60;99.90;;;;;;4443003;32;20164;-71
2021/08/19 09:08:22;;;;;;;5.40;3.10;;;23.30;99.90;;;;;;4437861;32;20201;-70
2021/08/19 09:10:51;;;;;;;5.40;2.90;;;22.70;99.90;;;;;;4440147;32;20134;-70
2021/08/19 09:13:20;;;;;;;3.90;2.80;;;22.60;99.90;;;;;;4438107;32;20149;-70
2021/08/19 09:15:48;;;;;;;6.27;2.93;;;22.40;99.90;;;;;;4441377;32;20492;-70
2021/08/19 09:18:31;;;;;;;4.50;3.07;;;22.80;99.90;;;;;;4445268;32;20438;-70
2021/08/19 09:20:58;;;;;;;3.80;3.00;;;22.70;99.90;;;;;;4444341;32;20226;-71
2021/08/19 09:23:25;;;;;;;5.83;2.87;;;22.80;99.90;;;;;;4448783;32;20252;-69
2021/08/19 09:25:53;;;;;;;5.40;3.50;;;22.60;99.90;;;;;;4452860;32;20150;-69
2021/08/19 09:28:25;;;;;;;4.77;3.07;;;22.50;99.90;;;;;;4453896;32;20368;-70
2021/08/19 09:30:56;;;;;;;5.63;3.00;;;22.40;99.90;;;;;;4454544;32;20142;-70
2021/08/19 09:33:29;;;;;;;8.33;3.20;;;22.30;99.90;;;;;;4452463;32;20475;-70
2021/08/19 09:36:02;;;;;;;8.07;3.77;;;22.10;99.90;;;;;;4451394;32;20139;-70
2021/08/19 09:38:38;;;;;;;8.03;3.40;;;22.00;99.90;;;;;;4438313;32;20411;-71
2021/08/19 09:41:20;;;;;;;9.57;3.43;;;22.00;99.90;;;;;;4437524;32;20304;-70
2021/08/19 09:43:52;;;;;;;3.33;3.00;;;22.00;99.90;;;;;;4444393;32;20150;-69
2021/08/19 09:46:28;;;;;;;5.27;2.97;;;22.80;99.90;;;;;;4441547;32;20164;-70
2021/08/19 09:48:55;;;;;;;6.03;3.20;;;22.80;99.90;;;;;;4454844;32;20142;-71
2021/08/19 09:51:24;;;;;;;7.70;3.20;;;22.90;99.90;;;;;;4455117;32;20146;-70
2021/08/19 09:53:53;;;;;;;10.57;2.93;;;22.90;99.90;;;;;;4455129;32;20138;-70
2021/08/19 09:56:31;;;;;;;11.73;3.50;;;23.30;99.90;;;;;;4441715;32;20218;-70
2021/08/19 09:59:27;;;;;;;7.27;2.77;;;23.90;99.90;;;;;;4442985;32;20261;-70
2021/08/19 10:01:55;;;;;;;6.20;3.03;;;24.60;99.90;;;;;;4454360;32;20142;-68
2021/08/19 10:04:25;;;;;;;5.70;3.20;;;25.00;99.90;;;;;;4443534;32;20196;-69
2021/08/19 10:06:56;;;;;;;4.97;3.05;;;25.60;99.90;;;;;;4450519;32;20154;-69
2021/08/19 10:09:24;;;;;;;5.97;2.97;;;25.80;99.90;;;;;;4441742;32;20530;-70
2021/08/19 10:11:52;;;;;;;5.12;3.35;;;25.60;99.90;;;;;;4440395;32;20199;-71
2021/08/19 10:14:24;;;;;;;4.22;2.80;;;25.30;99.90;;;;;;4441084;32;20415;-69
2021/08/19 10:16:53;;;;;;;3.42;3.12;;;25.00;99.90;;;;;;4441947;32;20201;-70
2021/08/19 10:19:27;;;;;;;5.07;2.85;;;24.80;99.90;;;;;;4441754;32;20414;-71
2021/08/19 10:22:05;;;;;;;3.55;2.95;;;24.70;99.90;;;;;;4439274;32;20151;-69
2021/08/19 10:24:36;;;;;;;3.43;2.90;;;24.20;99.90;;;;;;4441749;32;20195;-71
2021/08/19 10:27:14;;;;;;;4.25;2.65;;;23.50;99.90;;;;;;4443651;32;20174;-70
2021/08/19 10:29:45;;;;;;;4.43;3.10;;;22.90;99.90;;;;;;4446682;32;20150;-70
2021/08/19 10:32:32;;;;;;;4.47;2.70;;;22.40;99.90;;;;;;4454622;32;20206;-71
2021/08/19 10:35:03;;;;;;;3.53;2.57;;;22.20;99.90;;;;;;4455215;32;20154;-70
2021/08/19 10:37:48;;;;;;;4.40;2.70;;;22.30;99.90;;;;;;4453722;32;20158;-70
2021/08/19 10:40:36;;;;;;;3.93;2.70;;;22.10;99.90;;;;;;4451304;32;20210;-71
2021/08/19 10:43:30;;;;;;;4.23;2.67;;;22.20;99.90;;;;;;4441032;32;20139;-71
2021/08/19 10:46:12;;;;;;;5.37;3.07;;;22.60;99.90;;;;;;4452024;32;20186;-71
2021/08/19 10:48:50;;;;;;;4.53;3.20;;;23.80;99.90;;;;;;4449510;32;20173;-73
2021/08/19 10:51:18;;;;;;;4.47;2.70;;;24.30;99.90;;;;;;4439585;32;20190;-73
2021/08/19 10:53:45;;;;;;;4.30;2.77;;;24.20;99.90;;;;;;4441435;32;20169;-73
2021/08/19 10:56:12;;;;;;;6.10;2.60;;;24.10;99.90;;;;;;4442727;32;20187;-72
2021/08/19 10:58:43;;;;;;;4.00;2.90;;;24.00;99.90;;;;;;4455428;32;20146;-72
2021/08/19 11:01:12;;;;;;;3.47;2.60;;;23.70;99.90;;;;;;4454960;32;20205;-70
2021/08/19 11:03:41;;;;;;;4.50;2.60;;;23.20;99.90;;;;;;4455603;32;20219;-71
2021/08/19 11:06:19;;;;;;;6.77;2.60;;;22.80;99.90;;;;;;4456702;32;20423;-71
2021/08/19 11:08:47;;;;;;;2.80;2.30;;;22.40;99.90;;;;;;4451082;32;20527;-70
2021/08/19 11:11:25;;;;;;;4.67;2.57;;;22.20;99.90;;;;;;4447866;32;20177;-71
2021/08/19 11:14:20;;;;;;;7.43;2.60;;;22.10;99.90;;;;;;4452400;32;20166;-72
2021/08/19 11:16:55;;;;;;;3.37;2.50;;;22.00;99.90;;;;;;4448629;32;20389;-70
2021/08/19 11:19:24;;;;;;;3.83;2.43;;;22.00;99.90;;;;;;4440998;32;20142;-71
2021/08/19 11:21:54;;;;;;;3.53;2.40;;;22.10;99.90;;;;;;4452134;32;20150;-72
2021/08/19 11:24:23;;;;;;;6.07;2.70;;;22.30;99.90;;;;;;4438155;32;20131;-71
2021/08/19 11:26:58;;;;;;;5.23;2.90;;;22.80;99.90;;;;;;4444592;32;20165;-71
2021/08/19 11:29:37;;;;;;;5.57;2.63;;;23.20;99.90;;;;;;4445588;32;20179;-71
2021/08/19 11:32:07;;;;;;;6.47;3.27;;;23.20;99.90;;;;;;4441361;32;20142;-71
2021/08/19 11:34:35;;;;;;;3.70;2.30;;;23.10;99.90;;;;;;4438935;32;20131;-71
2021/08/19 11:37:02;;;;;;;4.83;3.00;;;22.90;99.90;;;;;;4441051;32;20154;-71
2021/08/19 11:39:29;;;;;;;4.40;2.60;;;22.60;99.90;;;;;;4440270;32;20147;-72
2021/08/19 11:41:58;;;;;;;3.20;2.77;;;22.30;99.90;;;;;;4439997;32;20190;-71
2021/08/19 11:44:26;;;;;;;4.10;3.10;;;22.10;99.90;;;;;;4439114;32;20503;-70
2021/08/19 11:47:04;;;;;;;4.90;2.87;;;21.80;99.90;;;;;;4438655;32;20130;-70
2021/08/19 11:49:31;;;;;;;4.00;2.93;;;21.70;99.90;;;;;;4440649;32;20183;-70
2021/08/19 11:52:07;;;;;;;4.47;2.97;;;21.60;99.90;;;;;;4440858;32;20190;-70
2021/08/19 11:54:42;;;;;;;6.40;3.47;;;21.60;99.90;;;;;;4439183;32;20184;-70
2021/08/19 11:57:24;;;;;;;3.30;3.00;;;21.60;99.90;;;;;;4440657;32;20441;-70
2021/08/19 11:59:59;;;;;;;3.90;2.97;;;21.60;99.90;;;;;;4438435;32;20457;-72
2021/08/19 12:02:27;;;;;;;4.97;2.90;;;21.60;99.90;;;;;;4440341;32;20230;-70
2021/08/19 12:05:08;;;;;;;4.67;3.20;;;21.70;99.90;;;;;;4440617;32;20440;-71
2021/08/19 12:07:41;;;;;;;3.90;2.70;;;21.80;99.90;;;;;;4446956;32;20154;-70
2021/08/19 12:10:09;;;;;;;4.03;3.00;;;22.00;99.90;;;;;;4440308;32;20198;-70
2021/08/19 12:12:39;;;;;;;3.97;3.00;;;22.90;99.90;;;;;;4440370;32;20195;-71
2021/08/19 12:15:08;;;;;;;4.40;2.80;;;23.00;99.90;;;;;;4439089;32;20213;-71
2021/08/19 12:17:35;;;;;;;5.47;2.87;;;22.70;99.90;;;;;;4438348;32;20172;-70
2021/08/19 12:20:16;;;;;;;3.77;2.90;;;22.50;99.90;;;;;;4440356;32;20214;-70
2021/08/19 12:22:44;;;;;;;7.60;2.97;;;22.30;99.90;;;;;;4439009;32;20173;-69
2021/08/19 12:25:27;;;;;;;5.20;3.10;;;22.00;99.90;;;;;;4440182;32;20127;-70
2021/08/19 12:28:09;;;;;;;6.00;3.43;;;21.80;99.90;;;;;;4440093;32;20176;-69
2021/08/19 12:30:59;;;;;;;4.10;3.17;;;21.70;99.90;;;;;;4438518;32;20138;-73
2021/08/19 12:33:37;;;;;;;5.20;3.33;;;21.50;99.90;;;;;;4439416;32;20199;-72
2021/08/19 12:36:19;;;;;;;6.40;3.10;;;21.40;99.90;;;;;;4439319;32;20131;-69
2021/08/19 12:38:49;;;;;;;4.67;3.30;;;21.30;99.90;;;;;;4438112;32;20208;-71
2021/08/19 12:41:16;;;;;;;6.63;3.17;;;21.00;99.90;;;;;;4438747;32;20215;-70
2021/08/19 12:43:44;;;;;;;4.73;3.37;;;21.00;99.90;;;;;;4438216;32;20142;-70
2021/08/19 12:46:14;;;;;;;7.37;3.67;;;20.90;99.90;;;;;;4439451;32;20131;-85
2021/08/19 12:48:42;;;;;;;5.27;3.20;;;20.90;99.90;;;;;;4439380;32;20472;-85
2021/08/19 12:51:18;;;;;;;6.63;3.80;;;20.90;99.90;;;;;;4439036;32;20179;-85
2021/08/19 12:54:07;;;;;;;6.27;3.60;;;20.70;99.90;;;;;;4439509;32;20201;-83
2021/08/19 12:56:37;;;;;;;4.93;3.37;;;20.70;99.90;;;;;;4441647;32;20203;-85